Airfield :
LOGIN :

Register | Disclaimer

   EN    FR    IT 

 










Legend :    VFR   Marginal VFR   IFR   Intensive IFR   Very Intensive IFR
Visi :
Ceiling :
>= 8 km
>= 3000ft
5 to 8 km
1000 to 3000 ft
1500m to 5 km
500 to 1000 ft
800 to 1500m
200 to 500 ft
< 800m
< 200 ft
Symbols :   Thunderstorms  Fog  Heavy snow  Heavy precipitations  Wind > 20 kt
SIGMETs :     Misc.  Thunderstorms  Icing  Turbulence  Mountain Waves  Volcanic Ashes






- Airport Elevation : 20 ft


EBFN - Koksijde

CURRENT METAR :
  • 190855Z AUTO 21010KT 9999 FEW051/// SCT200/// 12/09 Q1002 BLU

EXPIRED METARs :
  • 190825Z AUTO 21013KT 9999 FEW047/// BKN063/// BKN230/// 12/09 Q1002 BLU
  • 190755Z AUTO 21012KT 9999 BKN061/// 12/09 Q1002 BLU
  • 190725Z AUTO 19007KT 9999 BKN130/// 11/09 Q1002 BLU
  • 190716Z AUTO 20006KT 9999 FEW022/// BKN130/// 11/09 Q1002 BLU
  • 190636Z AUTO 22006KT 9999 BKN024/// BKN098/// 11/09 Q1002 WHT

TAF TAF EBFN
Valid from the 19 at 07:00 until the 19 at 16:00 UTC


190541Z 1907/1916 21010KT 9999 FEW020 SCT030
TEMPO 1907/1916 21015G25KT 4000 RA SHRA SCT008 BKN012TCU
PROB30
TEMPO 1907/1916 21020G30KT 2000 +SHRA TSRA SCT005 BKN010CB



MET'MAP, your aeronautical weather chart ! - Copyright ORBIFLY December 2007 - Disclaimer

ORBIFLY MET'MAP TEAM :

Programming & Development : Alexandra Zaïnal
Concept & Development : Baudouin d'Aumeries
Co-Development & Prog : Marc-Olivier Méhu
Technical & hardware support : Manuel Goepfert

Contact : metmap@orbifly.com




SOURCES & CREDITS :

   NOAA